sensor_id;sensor_type;location;lat;lon;timestamp;P1;durP1;ratioP1;P2;durP2;ratioP2
40533;SDS011;26233;51.894;10.192;2023-07-29T00:00:03;1.48;;;1.23;;
40533;SDS011;26233;51.894;10.192;2023-07-29T00:02:32;1.17;;;1.08;;
40533;SDS011;26233;51.894;10.192;2023-07-29T00:04:59;1.25;;;1.10;;
40533;SDS011;26233;51.894;10.192;2023-07-29T00:07:26;1.00;;;1.00;;
40533;SDS011;26233;51.894;10.192;2023-07-29T00:09:53;1.15;;;1.05;;
40533;SDS011;26233;51.894;10.192;2023-07-29T00:12:21;1.20;;;1.10;;
40533;SDS011;26233;51.894;10.192;2023-07-29T00:14:48;1.20;;;1.10;;
40533;SDS011;26233;51.894;10.192;2023-07-29T00:17:15;1.00;;;1.00;;
40533;SDS011;26233;51.894;10.192;2023-07-29T00:19:42;1.30;;;1.20;;
40533;SDS011;26233;51.894;10.192;2023-07-29T00:22:10;1.45;;;1.13;;
40533;SDS011;26233;51.894;10.192;2023-07-29T00:24:39;1.17;;;1.08;;
40533;SDS011;26233;51.894;10.192;2023-07-29T00:27:06;0.98;;;0.98;;
40533;SDS011;26233;51.894;10.192;2023-07-29T00:29:34;1.15;;;1.08;;
40533;SDS011;26233;51.894;10.192;2023-07-29T00:32:02;1.20;;;1.10;;
40533;SDS011;26233;51.894;10.192;2023-07-29T00:34:30;1.00;;;0.95;;
40533;SDS011;26233;51.894;10.192;2023-07-29T00:36:57;1.20;;;1.10;;
40533;SDS011;26233;51.894;10.192;2023-07-29T00:39:24;1.02;;;1.02;;
40533;SDS011;26233;51.894;10.192;2023-07-29T00:41:51;2.80;;;1.00;;
40533;SDS011;26233;51.894;10.192;2023-07-29T00:44:18;1.00;;;1.00;;
40533;SDS011;26233;51.894;10.192;2023-07-29T00:46:47;1.20;;;1.10;;
40533;SDS011;26233;51.894;10.192;2023-07-29T00:49:16;1.25;;;1.15;;
40533;SDS011;26233;51.894;10.192;2023-07-29T00:51:43;1.20;;;1.10;;
40533;SDS011;26233;51.894;10.192;2023-07-29T00:54:11;0.95;;;0.95;;
40533;SDS011;26233;51.894;10.192;2023-07-29T00:56:38;1.48;;;1.20;;
40533;SDS011;26233;51.894;10.192;2023-07-29T00:59:05;1.40;;;1.10;;
40533;SDS011;26233;51.894;10.192;2023-07-29T01:01:33;1.88;;;1.20;;
40533;SDS011;26233;51.894;10.192;2023-07-29T01:04:02;1.30;;;1.20;;
40533;SDS011;26233;51.894;10.192;2023-07-29T01:06:29;1.23;;;1.10;;
40533;SDS011;26233;51.894;10.192;2023-07-29T01:09:09;2.20;;;1.25;;
40533;SDS011;26233;51.894;10.192;2023-07-29T01:11:44;1.15;;;1.05;;
40533;SDS011;26233;51.894;10.192;2023-07-29T01:14:21;0.90;;;0.90;;
40533;SDS011;26233;51.894;10.192;2023-07-29T01:17:00;0.90;;;0.90;;
40533;SDS011;26233;51.894;10.192;2023-07-29T01:19:39;1.15;;;1.10;;
40533;SDS011;26233;51.894;10.192;2023-07-29T01:22:15;0.98;;;0.98;;
40533;SDS011;26233;51.894;10.192;2023-07-29T01:24:44;1.15;;;1.05;;
40533;SDS011;26233;51.894;10.192;2023-07-29T01:27:11;1.27;;;1.17;;
40533;SDS011;26233;51.894;10.192;2023-07-29T01:29:39;1.10;;;1.00;;
40533;SDS011;26233;51.894;10.192;2023-07-29T01:32:07;1.10;;;1.10;;
40533;SDS011;26233;51.894;10.192;2023-07-29T01:34:47;1.10;;;1.10;;
40533;SDS011;26233;51.894;10.192;2023-07-29T01:37:25;1.13;;;1.13;;
40533;SDS011;26233;51.894;10.192;2023-07-29T01:39:58;1.00;;;1.00;;
40533;SDS011;26233;51.894;10.192;2023-07-29T01:42:27;1.20;;;1.20;;
40533;SDS011;26233;51.894;10.192;2023-07-29T01:44:54;1.30;;;1.20;;
40533;SDS011;26233;51.894;10.192;2023-07-29T01:47:22;1.20;;;1.10;;
40533;SDS011;26233;51.894;10.192;2023-07-29T01:49:49;2.20;;;1.10;;
40533;SDS011;26233;51.894;10.192;2023-07-29T01:52:16;1.20;;;1.10;;
40533;SDS011;26233;51.894;10.192;2023-07-29T01:54:43;1.38;;;1.27;;
40533;SDS011;26233;51.894;10.192;2023-07-29T01:57:11;1.05;;;1.05;;
40533;SDS011;26233;51.894;10.192;2023-07-29T01:59:38;1.00;;;1.00;;
40533;SDS011;26233;51.894;10.192;2023-07-29T02:02:05;1.35;;;1.25;;
40533;SDS011;26233;51.894;10.192;2023-07-29T02:04:32;1.30;;;1.20;;
40533;SDS011;26233;51.894;10.192;2023-07-29T02:07:02;1.30;;;1.20;;
40533;SDS011;26233;51.894;10.192;2023-07-29T02:09:29;1.45;;;1.35;;
40533;SDS011;26233;51.894;10.192;2023-07-29T02:11:57;1.25;;;1.17;;
40533;SDS011;26233;51.894;10.192;2023-07-29T02:14:25;1.40;;;1.30;;
40533;SDS011;26233;51.894;10.192;2023-07-29T02:16:52;1.20;;;1.10;;
40533;SDS011;26233;51.894;10.192;2023-07-29T02:19:19;1.50;;;1.23;;
40533;SDS011;26233;51.894;10.192;2023-07-29T02:21:46;1.20;;;1.15;;
40533;SDS011;26233;51.894;10.192;2023-07-29T02:24:13;1.40;;;1.30;;
40533;SDS011;26233;51.894;10.192;2023-07-29T02:26:41;1.42;;;1.33;;
40533;SDS011;26233;51.894;10.192;2023-07-29T02:29:08;1.30;;;1.20;;
40533;SDS011;26233;51.894;10.192;2023-07-29T02:31:36;1.25;;;1.17;;
40533;SDS011;26233;51.894;10.192;2023-07-29T02:34:03;1.30;;;1.20;;
40533;SDS011;26233;51.894;10.192;2023-07-29T02:36:30;1.30;;;1.20;;
40533;SDS011;26233;51.894;10.192;2023-07-29T02:38:57;1.30;;;1.20;;
40533;SDS011;26233;51.894;10.192;2023-07-29T02:41:25;1.20;;;1.10;;
40533;SDS011;26233;51.894;10.192;2023-07-29T02:43:52;1.70;;;1.23;;
40533;SDS011;26233;51.894;10.192;2023-07-29T02:46:19;1.20;;;1.15;;
40533;SDS011;26233;51.894;10.192;2023-07-29T02:48:47;1.40;;;1.30;;
40533;SDS011;26233;51.894;10.192;2023-07-29T02:51:14;1.52;;;1.30;;
40533;SDS011;26233;51.894;10.192;2023-07-29T02:53:44;1.23;;;1.13;;
40533;SDS011;26233;51.894;10.192;2023-07-29T02:56:11;1.52;;;1.40;;
40533;SDS011;26233;51.894;10.192;2023-07-29T02:58:38;1.50;;;1.40;;
40533;SDS011;26233;51.894;10.192;2023-07-29T03:01:06;1.33;;;1.23;;
40533;SDS011;26233;51.894;10.192;2023-07-29T03:03:33;1.30;;;1.20;;
40533;SDS011;26233;51.894;10.192;2023-07-29T03:06:02;1.38;;;1.27;;
40533;SDS011;26233;51.894;10.192;2023-07-29T03:08:30;1.30;;;1.20;;
40533;SDS011;26233;51.894;10.192;2023-07-29T03:10:57;1.80;;;1.30;;
40533;SDS011;26233;51.894;10.192;2023-07-29T03:13:25;1.40;;;1.30;;
40533;SDS011;26233;51.894;10.192;2023-07-29T03:15:52;1.25;;;1.20;;
40533;SDS011;26233;51.894;10.192;2023-07-29T03:18:19;2.15;;;1.33;;
40533;SDS011;26233;51.894;10.192;2023-07-29T03:20:46;1.30;;;1.20;;
40533;SDS011;26233;51.894;10.192;2023-07-29T03:23:16;1.50;;;1.40;;
40533;SDS011;26233;51.894;10.192;2023-07-29T03:25:43;1.13;;;1.10;;
40533;SDS011;26233;51.894;10.192;2023-07-29T03:28:14;2.38;;;1.40;;
40533;SDS011;26233;51.894;10.192;2023-07-29T03:30:41;1.50;;;1.40;;
40533;SDS011;26233;51.894;10.192;2023-07-29T03:33:08;1.50;;;1.40;;
40533;SDS011;26233;51.894;10.192;2023-07-29T03:35:35;1.40;;;1.30;;
40533;SDS011;26233;51.894;10.192;2023-07-29T03:38:03;1.40;;;1.30;;
40533;SDS011;26233;51.894;10.192;2023-07-29T03:40:31;1.42;;;1.33;;
40533;SDS011;26233;51.894;10.192;2023-07-29T03:42:58;1.27;;;1.15;;
40533;SDS011;26233;51.894;10.192;2023-07-29T03:45:26;1.23;;;1.17;;
40533;SDS011;26233;51.894;10.192;2023-07-29T03:47:53;1.45;;;1.35;;
40533;SDS011;26233;51.894;10.192;2023-07-29T03:50:20;1.40;;;1.30;;
40533;SDS011;26233;51.894;10.192;2023-07-29T03:52:47;1.42;;;1.33;;
40533;SDS011;26233;51.894;10.192;2023-07-29T03:55:14;1.52;;;1.42;;
40533;SDS011;26233;51.894;10.192;2023-07-29T03:57:43;2.10;;;1.50;;
40533;SDS011;26233;51.894;10.192;2023-07-29T04:00:10;1.50;;;1.40;;
40533;SDS011;26233;51.894;10.192;2023-07-29T04:02:38;1.40;;;1.30;;
40533;SDS011;26233;51.894;10.192;2023-07-29T04:05:05;1.30;;;1.20;;
40533;SDS011;26233;51.894;10.192;2023-07-29T04:07:34;1.52;;;1.42;;
40533;SDS011;26233;51.894;10.192;2023-07-29T04:10:01;1.30;;;1.20;;
40533;SDS011;26233;51.894;10.192;2023-07-29T04:12:30;1.92;;;1.30;;
40533;SDS011;26233;51.894;10.192;2023-07-29T04:14:58;1.42;;;1.33;;
40533;SDS011;26233;51.894;10.192;2023-07-29T04:17:25;1.33;;;1.23;;
40533;SDS011;26233;51.894;10.192;2023-07-29T04:19:52;1.10;;;1.10;;
40533;SDS011;26233;51.894;10.192;2023-07-29T04:22:19;1.50;;;1.40;;
40533;SDS011;26233;51.894;10.192;2023-07-29T04:24:46;1.77;;;1.40;;
40533;SDS011;26233;51.894;10.192;2023-07-29T04:27:14;1.40;;;1.30;;
40533;SDS011;26233;51.894;10.192;2023-07-29T04:29:41;1.35;;;1.25;;
40533;SDS011;26233;51.894;10.192;2023-07-29T04:32:11;1.58;;;1.25;;
40533;SDS011;26233;51.894;10.192;2023-07-29T04:34:38;1.30;;;1.20;;
40533;SDS011;26233;51.894;10.192;2023-07-29T04:37:05;1.27;;;1.17;;
40533;SDS011;26233;51.894;10.192;2023-07-29T04:39:32;1.30;;;1.20;;
40533;SDS011;26233;51.894;10.192;2023-07-29T04:41:59;1.30;;;1.20;;
40533;SDS011;26233;51.894;10.192;2023-07-29T04:44:27;1.33;;;1.23;;
40533;SDS011;26233;51.894;10.192;2023-07-29T04:46:54;1.20;;;1.10;;
40533;SDS011;26233;51.894;10.192;2023-07-29T04:49:22;1.08;;;1.08;;
40533;SDS011;26233;51.894;10.192;2023-07-29T04:51:49;1.20;;;1.10;;
40533;SDS011;26233;51.894;10.192;2023-07-29T04:54:16;1.13;;;1.13;;
40533;SDS011;26233;51.894;10.192;2023-07-29T04:56:45;1.50;;;1.08;;
40533;SDS011;26233;51.894;10.192;2023-07-29T04:59:12;1.30;;;1.20;;
40533;SDS011;26233;51.894;10.192;2023-07-29T05:01:39;1.40;;;1.30;;
40533;SDS011;26233;51.894;10.192;2023-07-29T05:04:08;1.77;;;1.30;;
40533;SDS011;26233;51.894;10.192;2023-07-29T05:06:36;1.40;;;1.30;;
40533;SDS011;26233;51.894;10.192;2023-07-29T05:09:12;2.05;;;1.25;;
40533;SDS011;26233;51.894;10.192;2023-07-29T05:11:40;1.38;;;1.27;;
40533;SDS011;26233;51.894;10.192;2023-07-29T05:14:08;2.45;;;1.30;;
40533;SDS011;26233;51.894;10.192;2023-07-29T05:16:35;1.70;;;1.23;;
40533;SDS011;26233;51.894;10.192;2023-07-29T05:19:02;1.40;;;1.30;;
40533;SDS011;26233;51.894;10.192;2023-07-29T05:21:29;1.38;;;1.10;;
40533;SDS011;26233;51.894;10.192;2023-07-29T05:23:58;1.20;;;1.15;;
40533;SDS011;26233;51.894;10.192;2023-07-29T05:26:25;1.30;;;1.20;;
40533;SDS011;26233;51.894;10.192;2023-07-29T05:28:52;1.30;;;1.20;;
40533;SDS011;26233;51.894;10.192;2023-07-29T05:31:19;1.73;;;1.10;;
40533;SDS011;26233;51.894;10.192;2023-07-29T05:33:46;2.92;;;1.20;;
40533;SDS011;26233;51.894;10.192;2023-07-29T05:36:13;1.40;;;1.30;;
40533;SDS011;26233;51.894;10.192;2023-07-29T05:38:40;1.38;;;1.27;;
40533;SDS011;26233;51.894;10.192;2023-07-29T05:41:08;1.70;;;1.17;;
40533;SDS011;26233;51.894;10.192;2023-07-29T05:43:35;1.02;;;1.02;;
40533;SDS011;26233;51.894;10.192;2023-07-29T05:46:03;1.17;;;1.08;;
40533;SDS011;26233;51.894;10.192;2023-07-29T05:48:30;1.00;;;1.00;;
40533;SDS011;26233;51.894;10.192;2023-07-29T05:50:58;1.05;;;1.05;;
40533;SDS011;26233;51.894;10.192;2023-07-29T05:53:25;1.13;;;1.13;;
40533;SDS011;26233;51.894;10.192;2023-07-29T05:55:52;1.20;;;1.10;;
40533;SDS011;26233;51.894;10.192;2023-07-29T05:58:20;1.40;;;1.30;;
40533;SDS011;26233;51.894;10.192;2023-07-29T06:00:47;1.42;;;1.33;;
40533;SDS011;26233;51.894;10.192;2023-07-29T06:03:14;1.13;;;1.10;;
40533;SDS011;26233;51.894;10.192;2023-07-29T06:05:41;1.30;;;1.20;;
40533;SDS011;26233;51.894;10.192;2023-07-29T06:08:08;1.45;;;1.35;;
40533;SDS011;26233;51.894;10.192;2023-07-29T06:10:35;1.75;;;1.45;;
40533;SDS011;26233;51.894;10.192;2023-07-29T06:13:02;2.25;;;1.80;;
40533;SDS011;26233;51.894;10.192;2023-07-29T06:15:31;2.40;;;1.50;;
40533;SDS011;26233;51.894;10.192;2023-07-29T06:17:58;2.45;;;1.70;;
40533;SDS011;26233;51.894;10.192;2023-07-29T06:20:25;0.88;;;0.80;;
40533;SDS011;26233;51.894;10.192;2023-07-29T06:22:52;0.98;;;0.70;;
40533;SDS011;26233;51.894;10.192;2023-07-29T06:25:19;0.60;;;0.60;;
40533;SDS011;26233;51.894;10.192;2023-07-29T06:27:47;1.13;;;0.70;;
40533;SDS011;26233;51.894;10.192;2023-07-29T06:30:14;1.15;;;0.70;;
40533;SDS011;26233;51.894;10.192;2023-07-29T06:32:42;1.05;;;0.70;;
40533;SDS011;26233;51.894;10.192;2023-07-29T06:35:09;0.63;;;0.63;;
40533;SDS011;26233;51.894;10.192;2023-07-29T06:37:37;0.50;;;0.50;;
40533;SDS011;26233;51.894;10.192;2023-07-29T06:40:04;0.93;;;0.60;;
40533;SDS011;26233;51.894;10.192;2023-07-29T06:42:33;0.73;;;0.70;;
40533;SDS011;26233;51.894;10.192;2023-07-29T06:45:00;0.50;;;0.50;;
40533;SDS011;26233;51.894;10.192;2023-07-29T06:47:27;0.70;;;0.70;;
40533;SDS011;26233;51.894;10.192;2023-07-29T06:49:55;0.82;;;0.82;;
40533;SDS011;26233;51.894;10.192;2023-07-29T06:52:22;0.70;;;0.70;;
40533;SDS011;26233;51.894;10.192;2023-07-29T06:54:49;0.70;;;0.70;;
40533;SDS011;26233;51.894;10.192;2023-07-29T06:57:16;1.00;;;0.90;;
40533;SDS011;26233;51.894;10.192;2023-07-29T06:59:43;0.88;;;0.88;;
40533;SDS011;26233;51.894;10.192;2023-07-29T07:02:10;1.35;;;1.20;;
40533;SDS011;26233;51.894;10.192;2023-07-29T07:04:37;1.58;;;1.45;;
40533;SDS011;26233;51.894;10.192;2023-07-29T07:07:06;1.55;;;1.45;;
40533;SDS011;26233;51.894;10.192;2023-07-29T07:09:33;1.70;;;1.50;;
40533;SDS011;26233;51.894;10.192;2023-07-29T07:12:00;1.45;;;1.20;;
40533;SDS011;26233;51.894;10.192;2023-07-29T07:14:27;1.15;;;1.05;;
40533;SDS011;26233;51.894;10.192;2023-07-29T07:16:54;0.90;;;0.80;;
40533;SDS011;26233;51.894;10.192;2023-07-29T07:19:21;0.98;;;0.98;;
40533;SDS011;26233;51.894;10.192;2023-07-29T07:21:48;0.85;;;0.85;;
40533;SDS011;26233;51.894;10.192;2023-07-29T07:24:17;0.88;;;0.88;;
40533;SDS011;26233;51.894;10.192;2023-07-29T07:26:44;0.90;;;0.90;;
40533;SDS011;26233;51.894;10.192;2023-07-29T07:29:11;3.25;;;0.80;;
40533;SDS011;26233;51.894;10.192;2023-07-29T07:31:38;0.82;;;0.82;;
40533;SDS011;26233;51.894;10.192;2023-07-29T07:34:05;0.80;;;0.80;;
40533;SDS011;26233;51.894;10.192;2023-07-29T07:36:32;1.05;;;0.90;;
40533;SDS011;26233;51.894;10.192;2023-07-29T07:38:59;2.65;;;1.10;;
40533;SDS011;26233;51.894;10.192;2023-07-29T07:41:27;0.90;;;0.90;;
40533;SDS011;26233;51.894;10.192;2023-07-29T07:43:56;1.77;;;1.10;;
40533;SDS011;26233;51.894;10.192;2023-07-29T07:46:23;1.25;;;1.15;;
40533;SDS011;26233;51.894;10.192;2023-07-29T07:48:50;1.17;;;1.08;;
40533;SDS011;26233;51.894;10.192;2023-07-29T07:51:17;1.30;;;1.20;;
40533;SDS011;26233;51.894;10.192;2023-07-29T07:53:44;1.00;;;1.00;;
40533;SDS011;26233;51.894;10.192;2023-07-29T07:56:11;1.23;;;1.13;;
40533;SDS011;26233;51.894;10.192;2023-07-29T07:58:40;1.25;;;1.10;;
40533;SDS011;26233;51.894;10.192;2023-07-29T08:01:08;1.52;;;1.42;;
40533;SDS011;26233;51.894;10.192;2023-07-29T08:03:36;1.48;;;1.38;;
40533;SDS011;26233;51.894;10.192;2023-07-29T08:06:03;1.55;;;1.30;;
40533;SDS011;26233;51.894;10.192;2023-07-29T08:08:31;1.40;;;1.30;;
40533;SDS011;26233;51.894;10.192;2023-07-29T08:10:58;1.38;;;1.27;;
40533;SDS011;26233;51.894;10.192;2023-07-29T08:13:26;1.27;;;1.17;;
40533;SDS011;26233;51.894;10.192;2023-07-29T08:15:54;1.38;;;1.27;;
40533;SDS011;26233;51.894;10.192;2023-07-29T08:18:21;1.70;;;1.50;;
40533;SDS011;26233;51.894;10.192;2023-07-29T08:20:52;2.00;;;1.40;;
40533;SDS011;26233;51.894;10.192;2023-07-29T08:23:20;2.00;;;1.90;;
40533;SDS011;26233;51.894;10.192;2023-07-29T08:25:50;1.80;;;1.70;;
40533;SDS011;26233;51.894;10.192;2023-07-29T08:28:21;2.20;;;1.63;;
40533;SDS011;26233;51.894;10.192;2023-07-29T08:30:48;1.80;;;1.70;;
40533;SDS011;26233;51.894;10.192;2023-07-29T08:33:16;1.90;;;1.80;;
40533;SDS011;26233;51.894;10.192;2023-07-29T08:35:43;2.38;;;2.17;;
40533;SDS011;26233;51.894;10.192;2023-07-29T08:38:10;1.92;;;1.80;;
40533;SDS011;26233;51.894;10.192;2023-07-29T08:40:38;1.80;;;1.70;;
40533;SDS011;26233;51.894;10.192;2023-07-29T08:43:15;2.05;;;1.85;;
40533;SDS011;26233;51.894;10.192;2023-07-29T08:45:46;2.53;;;2.00;;
40533;SDS011;26233;51.894;10.192;2023-07-29T08:48:13;2.45;;;2.00;;
40533;SDS011;26233;51.894;10.192;2023-07-29T08:50:46;1.80;;;1.70;;
40533;SDS011;26233;51.894;10.192;2023-07-29T08:53:13;1.90;;;1.80;;
40533;SDS011;26233;51.894;10.192;2023-07-29T08:55:41;1.98;;;1.85;;
40533;SDS011;26233;51.894;10.192;2023-07-29T08:58:08;2.05;;;1.80;;
40533;SDS011;26233;51.894;10.192;2023-07-29T09:00:36;2.13;;;1.92;;
40533;SDS011;26233;51.894;10.192;2023-07-29T09:03:04;2.42;;;1.88;;
40533;SDS011;26233;51.894;10.192;2023-07-29T09:05:34;2.30;;;2.10;;
40533;SDS011;26233;51.894;10.192;2023-07-29T09:08:02;2.33;;;1.80;;
40533;SDS011;26233;51.894;10.192;2023-07-29T09:10:30;2.00;;;1.90;;
40533;SDS011;26233;51.894;10.192;2023-07-29T09:13:02;1.85;;;1.75;;
40533;SDS011;26233;51.894;10.192;2023-07-29T09:15:30;2.10;;;2.00;;
40533;SDS011;26233;51.894;10.192;2023-07-29T09:17:59;2.03;;;1.80;;
40533;SDS011;26233;51.894;10.192;2023-07-29T09:20:36;2.03;;;1.92;;
40533;SDS011;26233;51.894;10.192;2023-07-29T09:23:06;2.17;;;2.08;;
40533;SDS011;26233;51.894;10.192;2023-07-29T09:25:35;2.10;;;2.00;;
40533;SDS011;26233;51.894;10.192;2023-07-29T09:28:07;1.85;;;1.75;;
40533;SDS011;26233;51.894;10.192;2023-07-29T09:30:37;1.95;;;1.85;;
40533;SDS011;26233;51.894;10.192;2023-07-29T09:33:05;2.05;;;1.95;;
40533;SDS011;26233;51.894;10.192;2023-07-29T09:35:33;2.13;;;2.03;;
40533;SDS011;26233;51.894;10.192;2023-07-29T09:38:04;1.63;;;1.52;;
40533;SDS011;26233;51.894;10.192;2023-07-29T09:40:35;1.70;;;1.60;;
40533;SDS011;26233;51.894;10.192;2023-07-29T09:43:03;2.53;;;1.90;;
40533;SDS011;26233;51.894;10.192;2023-07-29T09:45:32;1.73;;;1.63;;
40533;SDS011;26233;51.894;10.192;2023-07-29T09:48:02;1.70;;;1.60;;
40533;SDS011;26233;51.894;10.192;2023-07-29T09:50:34;2.15;;;1.60;;
40533;SDS011;26233;51.894;10.192;2023-07-29T09:53:02;1.55;;;1.45;;
40533;SDS011;26233;51.894;10.192;2023-07-29T09:55:32;1.60;;;1.50;;
40533;SDS011;26233;51.894;10.192;2023-07-29T09:58:00;1.30;;;1.20;;
40533;SDS011;26233;51.894;10.192;2023-07-29T10:00:29;1.77;;;1.30;;
40533;SDS011;26233;51.894;10.192;2023-07-29T10:02:57;1.58;;;1.48;;
40533;SDS011;26233;51.894;10.192;2023-07-29T10:05:25;1.75;;;1.65;;
40533;SDS011;26233;51.894;10.192;2023-07-29T10:07:53;1.70;;;1.60;;
40533;SDS011;26233;51.894;10.192;2023-07-29T10:10:22;1.83;;;1.73;;
40533;SDS011;26233;51.894;10.192;2023-07-29T10:12:50;1.70;;;1.60;;
40533;SDS011;26233;51.894;10.192;2023-07-29T10:15:18;1.77;;;1.67;;
40533;SDS011;26233;51.894;10.192;2023-07-29T10:17:46;1.75;;;1.65;;
40533;SDS011;26233;51.894;10.192;2023-07-29T10:20:14;1.75;;;1.65;;
40533;SDS011;26233;51.894;10.192;2023-07-29T10:22:42;1.90;;;1.80;;
40533;SDS011;26233;51.894;10.192;2023-07-29T10:25:11;1.75;;;1.65;;
40533;SDS011;26233;51.894;10.192;2023-07-29T10:27:45;1.80;;;1.70;;
40533;SDS011;26233;51.894;10.192;2023-07-29T10:30:16;1.90;;;1.80;;
40533;SDS011;26233;51.894;10.192;2023-07-29T10:32:43;1.95;;;1.85;;
40533;SDS011;26233;51.894;10.192;2023-07-29T10:35:11;3.30;;;1.90;;
40533;SDS011;26233;51.894;10.192;2023-07-29T10:37:39;1.98;;;1.88;;
40533;SDS011;26233;51.894;10.192;2023-07-29T10:40:09;2.00;;;1.90;;
40533;SDS011;26233;51.894;10.192;2023-07-29T10:42:37;2.88;;;1.77;;
40533;SDS011;26233;51.894;10.192;2023-07-29T10:45:19;2.08;;;1.98;;
40533;SDS011;26233;51.894;10.192;2023-07-29T10:47:47;2.40;;;2.30;;
40533;SDS011;26233;51.894;10.192;2023-07-29T10:50:18;2.60;;;2.40;;
40533;SDS011;26233;51.894;10.192;2023-07-29T10:52:50;2.70;;;2.50;;
40533;SDS011;26233;51.894;10.192;2023-07-29T10:55:25;2.60;;;2.40;;
40533;SDS011;26233;51.894;10.192;2023-07-29T10:58:04;2.35;;;2.25;;
40533;SDS011;26233;51.894;10.192;2023-07-29T11:00:35;2.80;;;2.60;;
40533;SDS011;26233;51.894;10.192;2023-07-29T11:03:02;2.90;;;2.70;;
40533;SDS011;26233;51.894;10.192;2023-07-29T11:05:45;3.03;;;2.83;;
40533;SDS011;26233;51.894;10.192;2023-07-29T11:08:16;3.00;;;2.80;;
40533;SDS011;26233;51.894;10.192;2023-07-29T11:10:58;3.55;;;3.28;;
40533;SDS011;26233;51.894;10.192;2023-07-29T11:13:32;3.60;;;3.30;;
40533;SDS011;26233;51.894;10.192;2023-07-29T11:16:02;3.90;;;3.60;;
40533;SDS011;26233;51.894;10.192;2023-07-29T11:18:31;4.40;;;4.00;;
40533;SDS011;26233;51.894;10.192;2023-07-29T11:21:00;4.63;;;4.32;;
40533;SDS011;26233;51.894;10.192;2023-07-29T11:23:29;4.90;;;4.53;;
40533;SDS011;26233;51.894;10.192;2023-07-29T11:25:58;5.20;;;4.90;;
40533;SDS011;26233;51.894;10.192;2023-07-29T11:28:26;4.70;;;4.40;;
40533;SDS011;26233;51.894;10.192;2023-07-29T11:30:54;5.18;;;4.88;;
40533;SDS011;26233;51.894;10.192;2023-07-29T11:33:24;4.78;;;4.47;;
40533;SDS011;26233;51.894;10.192;2023-07-29T11:35:53;5.28;;;4.88;;
40533;SDS011;26233;51.894;10.192;2023-07-29T11:38:21;4.85;;;4.55;;
40533;SDS011;26233;51.894;10.192;2023-07-29T11:40:56;4.50;;;4.20;;
40533;SDS011;26233;51.894;10.192;2023-07-29T11:43:25;4.45;;;4.15;;
40533;SDS011;26233;51.894;10.192;2023-07-29T11:45:53;4.30;;;4.00;;
40533;SDS011;26233;51.894;10.192;2023-07-29T11:48:28;4.38;;;4.07;;
40533;SDS011;26233;51.894;10.192;2023-07-29T11:50:58;3.60;;;3.40;;
40533;SDS011;26233;51.894;10.192;2023-07-29T11:53:26;3.53;;;3.33;;
40533;SDS011;26233;51.894;10.192;2023-07-29T11:55:55;3.80;;;3.60;;
40533;SDS011;26233;51.894;10.192;2023-07-29T11:58:22;3.42;;;3.22;;
40533;SDS011;26233;51.894;10.192;2023-07-29T12:00:50;3.67;;;3.47;;
40533;SDS011;26233;51.894;10.192;2023-07-29T12:03:18;3.60;;;3.40;;
40533;SDS011;26233;51.894;10.192;2023-07-29T12:05:47;3.15;;;2.97;;
40533;SDS011;26233;51.894;10.192;2023-07-29T12:08:14;3.72;;;3.47;;
40533;SDS011;26233;51.894;10.192;2023-07-29T12:10:41;3.92;;;3.55;;
40533;SDS011;26233;51.894;10.192;2023-07-29T12:13:09;4.35;;;4.05;;
40533;SDS011;26233;51.894;10.192;2023-07-29T12:15:37;3.95;;;3.75;;
40533;SDS011;26233;51.894;10.192;2023-07-29T12:18:05;3.42;;;3.22;;
40533;SDS011;26233;51.894;10.192;2023-07-29T12:20:32;3.88;;;3.58;;
40533;SDS011;26233;51.894;10.192;2023-07-29T12:23:02;3.80;;;3.60;;
40533;SDS011;26233;51.894;10.192;2023-07-29T12:25:31;3.60;;;3.40;;
40533;SDS011;26233;51.894;10.192;2023-07-29T12:28:01;3.80;;;3.60;;
40533;SDS011;26233;51.894;10.192;2023-07-29T12:30:30;3.20;;;3.00;;
40533;SDS011;26233;51.894;10.192;2023-07-29T12:32:57;3.20;;;3.00;;
40533;SDS011;26233;51.894;10.192;2023-07-29T12:35:24;2.90;;;2.80;;
40533;SDS011;26233;51.894;10.192;2023-07-29T12:38:02;2.65;;;2.55;;
40533;SDS011;26233;51.894;10.192;2023-07-29T12:40:29;2.78;;;2.58;;
40533;SDS011;26233;51.894;10.192;2023-07-29T12:42:56;2.70;;;2.60;;
40533;SDS011;26233;51.894;10.192;2023-07-29T12:45:23;2.55;;;2.42;;
40533;SDS011;26233;51.894;10.192;2023-07-29T12:47:52;2.47;;;2.38;;
40533;SDS011;26233;51.894;10.192;2023-07-29T12:50:19;2.63;;;2.53;;
40533;SDS011;26233;51.894;10.192;2023-07-29T12:52:46;2.55;;;2.40;;
40533;SDS011;26233;51.894;10.192;2023-07-29T12:55:14;2.47;;;2.38;;
40533;SDS011;26233;51.894;10.192;2023-07-29T12:57:42;2.63;;;2.53;;
40533;SDS011;26233;51.894;10.192;2023-07-29T13:00:09;2.38;;;2.28;;
40533;SDS011;26233;51.894;10.192;2023-07-29T13:02:38;2.00;;;1.90;;
40533;SDS011;26233;51.894;10.192;2023-07-29T13:05:05;1.80;;;1.70;;
40533;SDS011;26233;51.894;10.192;2023-07-29T13:07:35;1.75;;;1.65;;
40533;SDS011;26233;51.894;10.192;2023-07-29T13:10:02;3.38;;;1.48;;
40533;SDS011;26233;51.894;10.192;2023-07-29T13:12:31;2.00;;;1.48;;
40533;SDS011;26233;51.894;10.192;2023-07-29T13:14:59;1.70;;;1.60;;
40533;SDS011;26233;51.894;10.192;2023-07-29T13:17:26;1.55;;;1.45;;
40533;SDS011;26233;51.894;10.192;2023-07-29T13:19:53;1.48;;;1.38;;
40533;SDS011;26233;51.894;10.192;2023-07-29T13:22:20;1.40;;;1.30;;
40533;SDS011;26233;51.894;10.192;2023-07-29T13:24:48;1.55;;;1.45;;
40533;SDS011;26233;51.894;10.192;2023-07-29T13:27:15;1.40;;;1.30;;
40533;SDS011;26233;51.894;10.192;2023-07-29T13:29:43;1.13;;;1.13;;
40533;SDS011;26233;51.894;10.192;2023-07-29T13:32:11;1.45;;;1.35;;
40533;SDS011;26233;51.894;10.192;2023-07-29T13:34:38;1.40;;;1.30;;
40533;SDS011;26233;51.894;10.192;2023-07-29T13:37:05;4.50;;;1.50;;
40533;SDS011;26233;51.894;10.192;2023-07-29T13:39:32;1.23;;;1.13;;
40533;SDS011;26233;51.894;10.192;2023-07-29T13:41:59;2.13;;;1.25;;
40533;SDS011;26233;51.894;10.192;2023-07-29T13:44:26;1.10;;;1.10;;
40533;SDS011;26233;51.894;10.192;2023-07-29T13:46:55;1.08;;;1.08;;
40533;SDS011;26233;51.894;10.192;2023-07-29T13:49:22;1.17;;;1.10;;
40533;SDS011;26233;51.894;10.192;2023-07-29T13:51:49;1.38;;;1.10;;
40533;SDS011;26233;51.894;10.192;2023-07-29T13:54:16;1.00;;;1.00;;
40533;SDS011;26233;51.894;10.192;2023-07-29T13:56:43;1.33;;;1.10;;
40533;SDS011;26233;51.894;10.192;2023-07-29T13:59:10;1.35;;;1.25;;
40533;SDS011;26233;51.894;10.192;2023-07-29T14:01:37;1.38;;;1.27;;
40533;SDS011;26233;51.894;10.192;2023-07-29T14:04:05;1.13;;;1.10;;
40533;SDS011;26233;51.894;10.192;2023-07-29T14:06:32;1.10;;;1.00;;
40533;SDS011;26233;51.894;10.192;2023-07-29T14:09:00;1.00;;;1.00;;
40533;SDS011;26233;51.894;10.192;2023-07-29T14:11:27;1.08;;;1.08;;
40533;SDS011;26233;51.894;10.192;2023-07-29T14:13:54;0.90;;;0.90;;
40533;SDS011;26233;51.894;10.192;2023-07-29T14:16:21;1.30;;;1.20;;
40533;SDS011;26233;51.894;10.192;2023-07-29T14:18:48;1.30;;;1.20;;
40533;SDS011;26233;51.894;10.192;2023-07-29T14:21:16;1.20;;;1.10;;
40533;SDS011;26233;51.894;10.192;2023-07-29T14:23:43;1.25;;;1.15;;
40533;SDS011;26233;51.894;10.192;2023-07-29T14:26:10;1.33;;;1.10;;
40533;SDS011;26233;51.894;10.192;2023-07-29T14:28:37;1.30;;;1.20;;
40533;SDS011;26233;51.894;10.192;2023-07-29T14:31:04;1.10;;;1.10;;
40533;SDS011;26233;51.894;10.192;2023-07-29T14:33:32;1.20;;;1.10;;
40533;SDS011;26233;51.894;10.192;2023-07-29T14:35:59;1.33;;;1.23;;
40533;SDS011;26233;51.894;10.192;2023-07-29T14:38:27;1.30;;;1.20;;